sensor_id;sensor_type;location;lat;lon;timestamp;pressure;altitude;pressure_sealevel;temperature;humidity
69027;BME280;56080;47.594;19.116;2022-09-06T00:02:43;100831;;;18.15;70.94
69027;BME280;56080;47.594;19.116;2022-09-06T00:07:42;100832;;;18.12;72.10
69027;BME280;56080;47.594;19.116;2022-09-06T00:12:42;100826;;;17.79;72.50
69027;BME280;56080;47.594;19.116;2022-09-06T00:17:44;100825;;;17.98;72.38
69027;BME280;56080;47.594;19.116;2022-09-06T00:22:42;100818;;;18.03;72.29
69027;BME280;56080;47.594;19.116;2022-09-06T00:32:43;100826;;;17.96;73.46
69027;BME280;56080;47.594;19.116;2022-09-06T00:37:42;100839;;;17.80;74.53
69027;BME280;56080;47.594;19.116;2022-09-06T00:42:42;100827;;;17.83;74.69
69027;BME280;56080;47.594;19.116;2022-09-06T00:47:42;100831;;;17.82;75.34
69027;BME280;56080;47.594;19.116;2022-09-06T00:52:43;100834;;;17.70;76.53
69027;BME280;56080;47.594;19.116;2022-09-06T00:57:42;100831;;;17.80;76.66
69027;BME280;56080;47.594;19.116;2022-09-06T01:02:43;100833;;;17.83;77.03
69027;BME280;56080;47.594;19.116;2022-09-06T01:12:46;100828;;;17.89;77.04
69027;BME280;56080;47.594;19.116;2022-09-06T01:17:54;100831;;;17.86;76.99
69027;BME280;56080;47.594;19.116;2022-09-06T01:22:51;100827;;;17.90;76.02
69027;BME280;56080;47.594;19.116;2022-09-06T01:37:42;100821;;;18.11;70.46
69027;BME280;56080;47.594;19.116;2022-09-06T01:42:42;100824;;;18.23;70.04
69027;BME280;56080;47.594;19.116;2022-09-06T02:07:42;100820;;;18.06;73.15
69027;BME280;56080;47.594;19.116;2022-09-06T02:12:43;100823;;;18.02;73.16
69027;BME280;56080;47.594;19.116;2022-09-06T02:17:44;100815;;;18.13;71.41
69027;BME280;56080;47.594;19.116;2022-09-06T02:27:44;100810;;;17.98;66.34
69027;BME280;56080;47.594;19.116;2022-09-06T02:32:45;100805;;;17.93;63.88
69027;BME280;56080;47.594;19.116;2022-09-06T02:37:42;100807;;;18.08;66.67
69027;BME280;56080;47.594;19.116;2022-09-06T02:47:43;100799;;;17.94;65.90
69027;BME280;56080;47.594;19.116;2022-09-06T02:52:42;100800;;;17.74;67.76
69027;BME280;56080;47.594;19.116;2022-09-06T02:57:42;100803;;;17.80;68.54
69027;BME280;56080;47.594;19.116;2022-09-06T03:02:43;100799;;;17.77;69.62
69027;BME280;56080;47.594;19.116;2022-09-06T03:07:42;100799;;;17.57;71.93
69027;BME280;56080;47.594;19.116;2022-09-06T03:12:43;100804;;;17.34;75.44
69027;BME280;56080;47.594;19.116;2022-09-06T03:17:42;100807;;;17.31;77.19
69027;BME280;56080;47.594;19.116;2022-09-06T03:22:42;100810;;;17.14;79.16
69027;BME280;56080;47.594;19.116;2022-09-06T03:27:42;100809;;;17.20;78.86
69027;BME280;56080;47.594;19.116;2022-09-06T03:32:42;100808;;;17.15;78.85
69027;BME280;56080;47.594;19.116;2022-09-06T03:37:42;100813;;;17.12;79.15
69027;BME280;56080;47.594;19.116;2022-09-06T03:42:42;100801;;;16.95;79.65
69027;BME280;56080;47.594;19.116;2022-09-06T03:47:42;100803;;;16.97;78.79
69027;BME280;56080;47.594;19.116;2022-09-06T03:52:42;100809;;;17.06;77.86
69027;BME280;56080;47.594;19.116;2022-09-06T03:57:42;100815;;;17.08;77.67
69027;BME280;56080;47.594;19.116;2022-09-06T04:02:42;100812;;;16.99;77.53
69027;BME280;56080;47.594;19.116;2022-09-06T04:07:42;100805;;;16.97;76.55
69027;BME280;56080;47.594;19.116;2022-09-06T04:12:43;100802;;;16.86;75.62
69027;BME280;56080;47.594;19.116;2022-09-06T04:17:43;100808;;;16.88;75.17
69027;BME280;56080;47.594;19.116;2022-09-06T04:22:42;100817;;;17.00;74.52
69027;BME280;56080;47.594;19.116;2022-09-06T04:32:42;100816;;;16.91;74.15
69027;BME280;56080;47.594;19.116;2022-09-06T04:37:42;100819;;;16.89;73.70
69027;BME280;56080;47.594;19.116;2022-09-06T04:42:42;100815;;;17.09;73.33
69027;BME280;56080;47.594;19.116;2022-09-06T04:47:42;100814;;;17.19;73.69
69027;BME280;56080;47.594;19.116;2022-09-06T04:52:42;100815;;;17.26;73.62
69027;BME280;56080;47.594;19.116;2022-09-06T04:57:48;100810;;;17.14;75.19
69027;BME280;56080;47.594;19.116;2022-09-06T05:02:43;100811;;;17.36;73.83
69027;BME280;56080;47.594;19.116;2022-09-06T05:07:42;100805;;;17.35;74.43
69027;BME280;56080;47.594;19.116;2022-09-06T05:12:52;100812;;;17.30;74.60
69027;BME280;56080;47.594;19.116;2022-09-06T05:17:42;100811;;;17.24;76.26
69027;BME280;56080;47.594;19.116;2022-09-06T05:22:43;100813;;;17.23;75.71
69027;BME280;56080;47.594;19.116;2022-09-06T05:27:42;100811;;;17.22;75.96
69027;BME280;56080;47.594;19.116;2022-09-06T05:32:43;100811;;;17.41;74.74
69027;BME280;56080;47.594;19.116;2022-09-06T05:37:42;100811;;;17.75;73.30
69027;BME280;56080;47.594;19.116;2022-09-06T05:42:42;100817;;;18.62;69.71
69027;BME280;56080;47.594;19.116;2022-09-06T05:47:43;100822;;;18.84;66.79
69027;BME280;56080;47.594;19.116;2022-09-06T05:52:43;100820;;;18.87;66.35
69027;BME280;56080;47.594;19.116;2022-09-06T05:57:42;100826;;;18.94;64.22
69027;BME280;56080;47.594;19.116;2022-09-06T06:02:46;100819;;;18.91;63.25
69027;BME280;56080;47.594;19.116;2022-09-06T06:07:42;100811;;;18.99;59.57
69027;BME280;56080;47.594;19.116;2022-09-06T06:12:42;100819;;;18.96;59.37
69027;BME280;56080;47.594;19.116;2022-09-06T06:17:42;100818;;;19.07;58.58
69027;BME280;56080;47.594;19.116;2022-09-06T06:22:42;100823;;;19.00;55.77
69027;BME280;56080;47.594;19.116;2022-09-06T06:27:43;100820;;;19.30;56.24
69027;BME280;56080;47.594;19.116;2022-09-06T06:32:42;100820;;;19.34;54.45
69027;BME280;56080;47.594;19.116;2022-09-06T06:37:44;100816;;;19.29;52.93
69027;BME280;56080;47.594;19.116;2022-09-06T06:42:42;100820;;;19.30;52.26
69027;BME280;56080;47.594;19.116;2022-09-06T06:47:42;100828;;;19.50;52.33
69027;BME280;56080;47.594;19.116;2022-09-06T06:52:42;100829;;;19.36;50.83
69027;BME280;56080;47.594;19.116;2022-09-06T06:57:42;100835;;;19.59;51.01
69027;BME280;56080;47.594;19.116;2022-09-06T07:02:43;100832;;;19.55;50.90
69027;BME280;56080;47.594;19.116;2022-09-06T07:07:42;100840;;;19.71;50.32
69027;BME280;56080;47.594;19.116;2022-09-06T07:12:43;100840;;;19.78;50.62
69027;BME280;56080;47.594;19.116;2022-09-06T07:17:43;100836;;;19.82;50.84
69027;BME280;56080;47.594;19.116;2022-09-06T07:22:43;100839;;;19.94;50.16
69027;BME280;56080;47.594;19.116;2022-09-06T07:27:46;100846;;;19.88;50.36
69027;BME280;56080;47.594;19.116;2022-09-06T07:32:43;100840;;;20.04;50.53
69027;BME280;56080;47.594;19.116;2022-09-06T07:37:49;100842;;;20.03;50.10
69027;BME280;56080;47.594;19.116;2022-09-06T07:42:42;100838;;;20.20;49.95
69027;BME280;56080;47.594;19.116;2022-09-06T07:47:53;100837;;;20.40;50.08
69027;BME280;56080;47.594;19.116;2022-09-06T07:52:52;100832;;;20.34;49.25
69027;BME280;56080;47.594;19.116;2022-09-06T07:57:42;100836;;;20.47;49.10
69027;BME280;56080;47.594;19.116;2022-09-06T08:02:42;100839;;;20.54;48.76
69027;BME280;56080;47.594;19.116;2022-09-06T08:07:42;100833;;;20.80;48.96
69027;BME280;56080;47.594;19.116;2022-09-06T08:12:42;100828;;;21.62;47.34
69027;BME280;56080;47.594;19.116;2022-09-06T08:17:42;100827;;;23.28;43.44
69027;BME280;56080;47.594;19.116;2022-09-06T08:22:42;100826;;;23.73;42.33
69027;BME280;56080;47.594;19.116;2022-09-06T08:27:43;100823;;;24.20;41.36
69027;BME280;56080;47.594;19.116;2022-09-06T08:32:43;100817;;;23.84;42.08
69027;BME280;56080;47.594;19.116;2022-09-06T08:37:42;100816;;;24.45;41.33
69027;BME280;56080;47.594;19.116;2022-09-06T08:42:43;100817;;;24.25;41.79
69027;BME280;56080;47.594;19.116;2022-09-06T08:47:43;100818;;;24.00;42.87
69027;BME280;56080;47.594;19.116;2022-09-06T09:02:44;100801;;;25.67;39.21
69027;BME280;56080;47.594;19.116;2022-09-06T09:07:43;100804;;;24.59;41.18
69027;BME280;56080;47.594;19.116;2022-09-06T09:12:44;100796;;;25.85;39.16
69027;BME280;56080;47.594;19.116;2022-09-06T09:17:43;100793;;;26.49;38.12
69027;BME280;56080;47.594;19.116;2022-09-06T09:22:43;100785;;;25.33;40.01
69027;BME280;56080;47.594;19.116;2022-09-06T09:27:43;100783;;;25.26;40.62
69027;BME280;56080;47.594;19.116;2022-09-06T09:32:44;100774;;;26.11;39.22
69027;BME280;56080;47.594;19.116;2022-09-06T09:37:47;100771;;;25.70;39.57
69027;BME280;56080;47.594;19.116;2022-09-06T09:42:43;100755;;;26.01;39.31
69027;BME280;56080;47.594;19.116;2022-09-06T09:47:43;100757;;;25.03;41.07
69027;BME280;56080;47.594;19.116;2022-09-06T09:52:43;100747;;;25.26;41.06
69027;BME280;56080;47.594;19.116;2022-09-06T09:57:43;100741;;;25.36;40.99
69027;BME280;56080;47.594;19.116;2022-09-06T10:02:43;100733;;;25.64;40.67
69027;BME280;56080;47.594;19.116;2022-09-06T10:07:51;100724;;;25.79;40.66
69027;BME280;56080;47.594;19.116;2022-09-06T10:12:43;100721;;;26.02;40.44
69027;BME280;56080;47.594;19.116;2022-09-06T10:27:58;100708;;;25.59;41.72
69027;BME280;56080;47.594;19.116;2022-09-06T10:42:45;100688;;;25.11;43.06
69027;BME280;56080;47.594;19.116;2022-09-06T10:48:00;100681;;;24.95;43.29
69027;BME280;56080;47.594;19.116;2022-09-06T10:52:43;100683;;;25.36;42.98
69027;BME280;56080;47.594;19.116;2022-09-06T10:57:54;100682;;;25.49;42.66
69027;BME280;56080;47.594;19.116;2022-09-06T11:07:43;100681;;;26.10;41.28
69027;BME280;56080;47.594;19.116;2022-09-06T11:22:46;100669;;;26.00;41.48
69027;BME280;56080;47.594;19.116;2022-09-06T11:27:44;100661;;;25.51;42.58
69027;BME280;56080;47.594;19.116;2022-09-06T11:32:48;100650;;;25.90;42.48
69027;BME280;56080;47.594;19.116;2022-09-06T11:37:43;100646;;;25.77;42.75
69027;BME280;56080;47.594;19.116;2022-09-06T11:47:43;100631;;;25.75;42.95
69027;BME280;56080;47.594;19.116;2022-09-06T11:57:43;100619;;;25.54;44.20
69027;BME280;56080;47.594;19.116;2022-09-06T12:02:43;100616;;;25.51;44.06
69027;BME280;56080;47.594;19.116;2022-09-06T12:12:44;100610;;;25.33;44.20
69027;BME280;56080;47.594;19.116;2022-09-06T12:17:44;100595;;;25.47;43.21
69027;BME280;56080;47.594;19.116;2022-09-06T12:28:00;100583;;;25.90;41.79
69027;BME280;56080;47.594;19.116;2022-09-06T12:32:44;100568;;;26.19;41.59
69027;BME280;56080;47.594;19.116;2022-09-06T12:37:59;100561;;;26.24;40.94
69027;BME280;56080;47.594;19.116;2022-09-06T12:42:43;100554;;;26.06;40.78
69027;BME280;56080;47.594;19.116;2022-09-06T12:47:44;100555;;;26.30;40.80
69027;BME280;56080;47.594;19.116;2022-09-06T12:53:01;100550;;;26.11;41.55
69027;BME280;56080;47.594;19.116;2022-09-06T12:57:51;100537;;;26.32;41.16
69027;BME280;56080;47.594;19.116;2022-09-06T13:02:48;100528;;;26.29;40.80
69027;BME280;56080;47.594;19.116;2022-09-06T13:07:44;100519;;;26.58;39.85
69027;BME280;56080;47.594;19.116;2022-09-06T13:12:43;100511;;;26.64;38.79
69027;BME280;56080;47.594;19.116;2022-09-06T13:17:43;100497;;;26.62;37.71
69027;BME280;56080;47.594;19.116;2022-09-06T13:22:44;100495;;;26.84;37.95
69027;BME280;56080;47.594;19.116;2022-09-06T13:27:45;100496;;;26.78;38.57
69027;BME280;56080;47.594;19.116;2022-09-06T13:32:44;100489;;;26.59;38.20
69027;BME280;56080;47.594;19.116;2022-09-06T13:37:44;100487;;;26.38;37.59
69027;BME280;56080;47.594;19.116;2022-09-06T13:42:43;100487;;;26.43;37.48
69027;BME280;56080;47.594;19.116;2022-09-06T13:47:43;100476;;;26.40;37.14
69027;BME280;56080;47.594;19.116;2022-09-06T13:52:43;100469;;;26.25;37.56
69027;BME280;56080;47.594;19.116;2022-09-06T13:57:44;100474;;;26.22;37.65
69027;BME280;56080;47.594;19.116;2022-09-06T14:02:43;100465;;;26.13;38.16
69027;BME280;56080;47.594;19.116;2022-09-06T14:07:43;100466;;;26.00;38.83
69027;BME280;56080;47.594;19.116;2022-09-06T14:12:43;100462;;;26.07;38.42
69027;BME280;56080;47.594;19.116;2022-09-06T14:17:43;100456;;;26.05;38.59
69027;BME280;56080;47.594;19.116;2022-09-06T14:22:43;100461;;;26.01;38.95
69027;BME280;56080;47.594;19.116;2022-09-06T14:27:43;100461;;;25.86;40.07
69027;BME280;56080;47.594;19.116;2022-09-06T14:32:43;100458;;;25.84;40.46
69027;BME280;56080;47.594;19.116;2022-09-06T14:37:43;100456;;;25.89;40.86
69027;BME280;56080;47.594;19.116;2022-09-06T14:42:43;100451;;;25.83;40.74
69027;BME280;56080;47.594;19.116;2022-09-06T14:47:43;100452;;;25.72;41.73
69027;BME280;56080;47.594;19.116;2022-09-06T14:52:43;100453;;;25.80;41.07
69027;BME280;56080;47.594;19.116;2022-09-06T14:57:43;100448;;;25.77;40.79
69027;BME280;56080;47.594;19.116;2022-09-06T15:02:43;100450;;;25.81;40.90
69027;BME280;56080;47.594;19.116;2022-09-06T15:07:43;100453;;;25.75;41.50
69027;BME280;56080;47.594;19.116;2022-09-06T15:12:43;100456;;;25.65;41.84
69027;BME280;56080;47.594;19.116;2022-09-06T15:17:44;100458;;;25.68;42.49
69027;BME280;56080;47.594;19.116;2022-09-06T15:22:43;100453;;;25.57;42.70
69027;BME280;56080;47.594;19.116;2022-09-06T15:27:43;100446;;;25.34;43.19
69027;BME280;56080;47.594;19.116;2022-09-06T15:32:43;100454;;;25.29;43.99
69027;BME280;56080;47.594;19.116;2022-09-06T15:37:45;100454;;;25.16;47.85
69027;BME280;56080;47.594;19.116;2022-09-06T15:42:43;100455;;;24.35;51.77
69027;BME280;56080;47.594;19.116;2022-09-06T15:47:43;100465;;;23.76;54.69
69027;BME280;56080;47.594;19.116;2022-09-06T15:52:43;100481;;;23.33;57.24
69027;BME280;56080;47.594;19.116;2022-09-06T15:57:43;100490;;;23.19;58.46
69027;BME280;56080;47.594;19.116;2022-09-06T16:02:43;100508;;;23.04;58.75
69027;BME280;56080;47.594;19.116;2022-09-06T16:07:43;100508;;;22.85;59.71
69027;BME280;56080;47.594;19.116;2022-09-06T16:12:47;100525;;;23.11;59.15
69027;BME280;56080;47.594;19.116;2022-09-06T16:17:43;100525;;;22.92;59.91
69027;BME280;56080;47.594;19.116;2022-09-06T16:22:43;100529;;;22.76;60.67
69027;BME280;56080;47.594;19.116;2022-09-06T16:32:43;100534;;;22.46;63.39
69027;BME280;56080;47.594;19.116;2022-09-06T16:37:43;100520;;;22.44;64.83
69027;BME280;56080;47.594;19.116;2022-09-06T16:42:43;100513;;;22.33;66.50
69027;BME280;56080;47.594;19.116;2022-09-06T16:47:45;100508;;;21.87;69.38
69027;BME280;56080;47.594;19.116;2022-09-06T16:52:43;100496;;;21.55;71.28
69027;BME280;56080;47.594;19.116;2022-09-06T16:57:43;100492;;;21.64;71.33
69027;BME280;56080;47.594;19.116;2022-09-06T17:02:47;100486;;;21.58;72.03
69027;BME280;56080;47.594;19.116;2022-09-06T17:07:43;100486;;;21.60;71.97
69027;BME280;56080;47.594;19.116;2022-09-06T17:12:43;100495;;;21.67;71.79
69027;BME280;56080;47.594;19.116;2022-09-06T17:17:43;100499;;;21.54;72.79
69027;BME280;56080;47.594;19.116;2022-09-06T17:22:43;100502;;;21.73;72.74
69027;BME280;56080;47.594;19.116;2022-09-06T17:27:43;100510;;;21.65;73.14
69027;BME280;56080;47.594;19.116;2022-09-06T17:32:43;100509;;;21.63;74.92
69027;BME280;56080;47.594;19.116;2022-09-06T17:37:43;100497;;;21.55;75.80
69027;BME280;56080;47.594;19.116;2022-09-06T17:42:43;100500;;;21.49;77.24
69027;BME280;56080;47.594;19.116;2022-09-06T17:47:43;100510;;;21.30;73.20
69027;BME280;56080;47.594;19.116;2022-09-06T17:52:43;100520;;;21.48;73.86
69027;BME280;56080;47.594;19.116;2022-09-06T17:57:43;100520;;;21.41;78.24
69027;BME280;56080;47.594;19.116;2022-09-06T18:02:43;100523;;;21.38;78.13
69027;BME280;56080;47.594;19.116;2022-09-06T18:07:44;100520;;;21.45;78.14
69027;BME280;56080;47.594;19.116;2022-09-06T18:12:43;100521;;;21.50;77.53
69027;BME280;56080;47.594;19.116;2022-09-06T18:17:43;100533;;;21.47;76.38
69027;BME280;56080;47.594;19.116;2022-09-06T18:22:43;100529;;;21.03;73.61
69027;BME280;56080;47.594;19.116;2022-09-06T18:27:43;100530;;;20.96;75.85
69027;BME280;56080;47.594;19.116;2022-09-06T18:32:43;100534;;;21.18;76.79
69027;BME280;56080;47.594;19.116;2022-09-06T18:37:43;100529;;;21.23;77.14
69027;BME280;56080;47.594;19.116;2022-09-06T18:42:43;100529;;;21.20;77.71
69027;BME280;56080;47.594;19.116;2022-09-06T18:47:43;100527;;;20.89;79.32
69027;BME280;56080;47.594;19.116;2022-09-06T18:52:43;100522;;;20.76;80.17
69027;BME280;56080;47.594;19.116;2022-09-06T18:57:43;100523;;;20.70;81.26
69027;BME280;56080;47.594;19.116;2022-09-06T19:02:43;100525;;;20.67;81.79
69027;BME280;56080;47.594;19.116;2022-09-06T19:07:43;100532;;;20.62;82.46
69027;BME280;56080;47.594;19.116;2022-09-06T19:12:43;100548;;;20.72;82.11
69027;BME280;56080;47.594;19.116;2022-09-06T19:17:43;100554;;;20.64;82.34
69027;BME280;56080;47.594;19.116;2022-09-06T19:22:43;100537;;;20.67;82.09
69027;BME280;56080;47.594;19.116;2022-09-06T19:27:49;100536;;;20.61;82.33
69027;BME280;56080;47.594;19.116;2022-09-06T19:32:43;100530;;;20.64;82.64
69027;BME280;56080;47.594;19.116;2022-09-06T19:37:43;100522;;;20.62;82.75
69027;BME280;56080;47.594;19.116;2022-09-06T19:42:43;100518;;;20.47;83.96
69027;BME280;56080;47.594;19.116;2022-09-06T19:47:43;100518;;;20.29;84.83
69027;BME280;56080;47.594;19.116;2022-09-06T19:52:43;100517;;;20.06;85.78
69027;BME280;56080;47.594;19.116;2022-09-06T19:57:43;100518;;;20.33;85.24
69027;BME280;56080;47.594;19.116;2022-09-06T20:02:43;100524;;;20.07;86.14
69027;BME280;56080;47.594;19.116;2022-09-06T20:07:43;100523;;;20.01;86.46
69027;BME280;56080;47.594;19.116;2022-09-06T20:17:45;100523;;;20.07;86.53
69027;BME280;56080;47.594;19.116;2022-09-06T20:22:44;100514;;;19.83;87.96
69027;BME280;56080;47.594;19.116;2022-09-06T20:27:45;100514;;;19.76;88.24
69027;BME280;56080;47.594;19.116;2022-09-06T20:32:43;100512;;;19.83;88.10
69027;BME280;56080;47.594;19.116;2022-09-06T20:37:43;100519;;;19.68;88.36
69027;BME280;56080;47.594;19.116;2022-09-06T20:42:45;100515;;;19.54;88.79
69027;BME280;56080;47.594;19.116;2022-09-06T20:47:43;100517;;;19.55;88.68
69027;BME280;56080;47.594;19.116;2022-09-06T20:57:45;100513;;;19.54;87.90
69027;BME280;56080;47.594;19.116;2022-09-06T21:02:43;100510;;;19.51;87.92
69027;BME280;56080;47.594;19.116;2022-09-06T21:07:43;100500;;;19.21;88.55
69027;BME280;56080;47.594;19.116;2022-09-06T21:12:43;100505;;;19.10;89.96
69027;BME280;56080;47.594;19.116;2022-09-06T21:17:43;100503;;;19.13;89.04
69027;BME280;56080;47.594;19.116;2022-09-06T21:22:43;100500;;;19.27;87.49
69027;BME280;56080;47.594;19.116;2022-09-06T21:27:43;100501;;;18.93;88.60
69027;BME280;56080;47.594;19.116;2022-09-06T21:32:43;100516;;;18.81;89.46
69027;BME280;56080;47.594;19.116;2022-09-06T21:37:43;100512;;;18.94;89.33
69027;BME280;56080;47.594;19.116;2022-09-06T21:42:43;100515;;;18.84;88.68
69027;BME280;56080;47.594;19.116;2022-09-06T21:47:43;100506;;;18.73;88.96
69027;BME280;56080;47.594;19.116;2022-09-06T21:52:43;100502;;;18.59;89.22
69027;BME280;56080;47.594;19.116;2022-09-06T21:57:43;100499;;;18.68;88.44
69027;BME280;56080;47.594;19.116;2022-09-06T22:02:43;100498;;;18.64;87.93
69027;BME280;56080;47.594;19.116;2022-09-06T22:07:43;100496;;;18.66;87.78
69027;BME280;56080;47.594;19.116;2022-09-06T22:12:43;100504;;;18.74;87.14
69027;BME280;56080;47.594;19.116;2022-09-06T22:17:43;100498;;;18.77;86.63
69027;BME280;56080;47.594;19.116;2022-09-06T22:22:45;100496;;;18.82;86.23
69027;BME280;56080;47.594;19.116;2022-09-06T22:27:43;100499;;;18.61;87.08
69027;BME280;56080;47.594;19.116;2022-09-06T22:32:43;100498;;;18.58;87.35
69027;BME280;56080;47.594;19.116;2022-09-06T22:37:43;100488;;;18.63;87.32
69027;BME280;56080;47.594;19.116;2022-09-06T22:42:43;100492;;;18.51;87.64
69027;BME280;56080;47.594;19.116;2022-09-06T22:47:43;100487;;;18.57;87.75
69027;BME280;56080;47.594;19.116;2022-09-06T22:52:43;100483;;;18.51;88.12
69027;BME280;56080;47.594;19.116;2022-09-06T22:57:43;100483;;;18.38;89.81
69027;BME280;56080;47.594;19.116;2022-09-06T23:02:43;100480;;;18.09;92.12
69027;BME280;56080;47.594;19.116;2022-09-06T23:07:43;100481;;;18.43;90.57
69027;BME280;56080;47.594;19.116;2022-09-06T23:12:43;100476;;;18.48;89.93
69027;BME280;56080;47.594;19.116;2022-09-06T23:17:43;100481;;;18.42;90.31
69027;BME280;56080;47.594;19.116;2022-09-06T23:22:43;100482;;;18.43;89.89
69027;BME280;56080;47.594;19.116;2022-09-06T23:27:43;100482;;;18.29;90.13
69027;BME280;56080;47.594;19.116;2022-09-06T23:32:43;100486;;;18.26;89.84
69027;BME280;56080;47.594;19.116;2022-09-06T23:37:43;100482;;;18.17;90.35
69027;BME280;56080;47.594;19.116;2022-09-06T23:42:43;100473;;;18.21;89.90
69027;BME280;56080;47.594;19.116;2022-09-06T23:47:43;100471;;;17.91;90.75
69027;BME280;56080;47.594;19.116;2022-09-06T23:52:43;100470;;;17.93;90.61
69027;BME280;56080;47.594;19.116;2022-09-06T23:57:43;100468;;;17.82;91.15
